Terminal Aerodrome Forecast
Issued by NWS

Home | Current Version | Previous Version | Text Only | Print | Product List | Glossary On
Versions: 1 2 3 4 5 6 7 8 9 10 11 12 13
333
FTUS45 KPIH 261121
TAFSUN
TAF
KSUN 261121Z 2612/2718 32006KT P6SM SCT080
     FM261800 13007KT P6SM VCTS SCT050 OVC080CB
     FM270400 31007KT P6SM VCSH OVC060
      AMD LTD TO CLD VIS AND WIND TIL 261300=

USA.gov is the U.S. government's official web portal to all federal, state and local government web resources and services.